createdAt,value
2018-12-26T00:00:16.027Z,8.00
2018-12-26T00:03:19.193Z,8.37
2018-12-26T00:06:21.161Z,11.17
2018-12-26T00:09:24.163Z,13.40
2018-12-26T00:12:26.177Z,11.57
2018-12-26T00:15:28.128Z,14.40
2018-12-26T00:18:30.072Z,19.93
2018-12-26T00:21:32.092Z,8.43
2018-12-26T00:24:34.112Z,11.20
2018-12-26T00:27:36.065Z,10.27
2018-12-26T00:30:38.123Z,8.53
2018-12-26T00:33:40.011Z,8.80
2018-12-26T00:36:41.953Z,10.20
2018-12-26T00:39:43.887Z,9.50
2018-12-26T00:42:45.824Z,8.40
2018-12-26T00:45:47.807Z,8.73
2018-12-26T00:48:49.896Z,7.00
2018-12-26T00:51:51.893Z,8.97
2018-12-26T00:54:53.935Z,7.77
2018-12-26T00:57:55.943Z,11.10
2018-12-26T01:00:58.013Z,10.67
2018-12-26T01:04:00.078Z,15.97
2018-12-26T01:07:02.016Z,10.33
2018-12-26T01:10:04.588Z,11.07
2018-12-26T01:13:06.564Z,8.90
2018-12-26T01:16:08.525Z,8.67
2018-12-26T01:19:10.483Z,7.07
2018-12-26T01:22:12.578Z,13.17
2018-12-26T01:25:14.627Z,11.47
2018-12-26T01:28:16.538Z,7.10
2018-12-26T01:31:18.492Z,9.13
2018-12-26T01:34:20.563Z,9.00
2018-12-26T01:37:22.512Z,6.87
2018-12-26T01:40:24.462Z,8.17
2018-12-26T01:43:26.531Z,12.63
2018-12-26T01:46:28.541Z,11.17
2018-12-26T01:49:30.649Z,7.07
2018-12-26T01:52:32.610Z,8.27
2018-12-26T01:55:34.633Z,9.23
2018-12-26T01:58:36.637Z,8.47
2018-12-26T02:01:38.607Z,10.80
2018-12-26T02:04:40.580Z,12.57
2018-12-26T02:07:42.628Z,7.13
2018-12-26T02:10:44.577Z,10.97
2018-12-26T02:13:46.564Z,8.53
2018-12-26T02:16:49.618Z,9.33
2018-12-26T02:19:51.754Z,8.40
2018-12-26T02:22:53.705Z,9.53
2018-12-26T02:25:55.762Z,9.43
2018-12-26T02:28:57.648Z,7.30
2018-12-26T02:31:59.701Z,7.17
2018-12-26T02:35:01.642Z,6.53
2018-12-26T02:38:03.595Z,8.57
2018-12-26T02:41:06.101Z,12.73
2018-12-26T02:44:08.058Z,7.47
2018-12-26T02:47:10.114Z,9.87
2018-12-26T02:50:12.028Z,11.90
2018-12-26T02:53:13.999Z,10.67
2018-12-26T02:56:17.221Z,13.87
2018-12-26T02:59:19.176Z,13.07
2018-12-26T03:02:21.146Z,9.47
2018-12-26T03:05:24.135Z,11.23
2018-12-26T03:08:26.078Z,9.57
2018-12-26T03:11:28.147Z,10.33
2018-12-26T03:14:30.122Z,16.40
2018-12-26T03:17:33.925Z,12.33
2018-12-26T03:20:35.891Z,14.60
2018-12-26T03:23:37.962Z,12.03
2018-12-26T03:26:39.987Z,9.90
2018-12-26T03:29:42.006Z,13.07
2018-12-26T03:32:44.026Z,12.30
2018-12-26T03:35:46.420Z,10.80
2018-12-26T03:38:48.417Z,10.50
2018-12-26T03:41:50.472Z,11.37
2018-12-26T03:44:52.519Z,11.77
2018-12-26T03:47:54.602Z,13.97
2018-12-26T03:50:56.579Z,12.43
2018-12-26T03:53:58.555Z,13.03
2018-12-26T03:57:06.018Z,13.20
2018-12-26T04:00:06.804Z,14.53
2018-12-26T04:03:08.805Z,13.97
2018-12-26T04:06:10.876Z,13.47
2018-12-26T04:09:12.961Z,15.20
2018-12-26T04:12:15.079Z,18.03
2018-12-26T04:15:17.028Z,12.90
2018-12-26T04:18:19.239Z,14.07
2018-12-26T04:21:21.124Z,12.97
2018-12-26T04:24:23.241Z,18.33
2018-12-26T04:27:25.182Z,11.67
2018-12-26T04:30:27.126Z,12.63
2018-12-26T04:33:29.104Z,15.50
2018-12-26T04:36:31.089Z,17.30
2018-12-26T04:39:33.038Z,15.03
2018-12-26T04:42:34.955Z,16.03
2018-12-26T04:45:36.954Z,18.60
2018-12-26T04:48:39.047Z,14.27
2018-12-26T04:51:41.060Z,15.73
2018-12-26T04:54:42.954Z,13.10
2018-12-26T04:57:44.997Z,18.67
2018-12-26T05:00:46.895Z,14.53
2018-12-26T05:03:48.951Z,16.47
2018-12-26T05:06:51.033Z,19.40
2018-12-26T05:09:53.086Z,15.27
2018-12-26T05:12:55.108Z,15.03
2018-12-26T05:15:57.038Z,13.17
2018-12-26T05:18:59.059Z,13.17
2018-12-26T05:22:01.373Z,15.20
2018-12-26T05:25:04.098Z,14.80
2018-12-26T05:28:06.059Z,14.10
2018-12-26T05:31:07.974Z,16.80
2018-12-26T05:34:09.965Z,14.77
2018-12-26T05:37:11.917Z,14.10
2018-12-26T05:40:13.895Z,18.57
2018-12-26T05:43:15.845Z,15.53
2018-12-26T05:46:17.824Z,18.30
2018-12-26T05:49:19.848Z,20.77
2018-12-26T05:52:21.804Z,18.00
2018-12-26T05:55:23.792Z,19.53
2018-12-26T05:58:25.745Z,18.30
2018-12-26T06:01:27.650Z,20.47
2018-12-26T06:04:29.619Z,17.37
2018-12-26T06:07:31.663Z,16.50
2018-12-26T06:10:33.615Z,17.67
2018-12-26T06:13:35.553Z,17.80
2018-12-26T06:16:37.494Z,14.93
2018-12-26T06:19:39.560Z,17.00
2018-12-26T06:22:41.536Z,20.90
2018-12-26T06:25:43.442Z,16.17
2018-12-26T06:28:45.394Z,18.20
2018-12-26T06:31:47.301Z,20.30
2018-12-26T06:34:49.257Z,16.67
2018-12-26T06:37:51.217Z,17.90
2018-12-26T06:40:53.129Z,20.13
2018-12-26T06:43:55.075Z,23.23
2018-12-26T06:46:57.042Z,20.57
2018-12-26T06:49:59.056Z,20.47
2018-12-26T06:53:02.055Z,18.77
2018-12-26T06:56:04.063Z,16.30
2018-12-26T06:59:06.020Z,18.90
2018-12-26T07:02:08.022Z,15.63
2018-12-26T07:05:09.970Z,20.90
2018-12-26T07:08:12.110Z,16.87
2018-12-26T07:11:14.056Z,17.57
2018-12-26T07:14:16.008Z,19.13
2018-12-26T07:17:18.105Z,18.90
2018-12-26T07:20:20.160Z,18.27
2018-12-26T07:23:22.132Z,19.13
2018-12-26T07:26:24.068Z,16.80
2018-12-26T07:29:26.026Z,18.60
2018-12-26T07:32:28.070Z,22.77
2018-12-26T07:35:30.149Z,23.10
2018-12-26T07:38:32.159Z,23.13
2018-12-26T07:41:34.132Z,20.07
2018-12-26T07:44:36.023Z,24.20
2018-12-26T07:47:38.115Z,19.17
2018-12-26T07:50:40.204Z,23.87
2018-12-26T07:53:42.183Z,22.53
2018-12-26T07:56:44.168Z,22.90
2018-12-26T07:59:46.215Z,22.63
2018-12-26T08:02:48.151Z,20.97
2018-12-26T08:05:50.125Z,24.10
2018-12-26T08:08:52.082Z,19.93
2018-12-26T08:11:54.021Z,23.67
2018-12-26T08:14:55.992Z,23.63
2018-12-26T08:17:57.947Z,25.53
2018-12-26T08:21:00.163Z,24.30
2018-12-26T08:24:02.133Z,23.27
2018-12-26T08:27:04.173Z,24.27
2018-12-26T08:30:06.121Z,28.83
2018-12-26T08:33:08.085Z,25.63
2018-12-26T08:36:10.026Z,22.63
2018-12-26T08:39:12.054Z,23.93
2018-12-26T08:42:14.015Z,26.83
2018-12-26T08:45:16.053Z,27.47
2018-12-26T08:48:19.070Z,23.73
2018-12-26T08:51:21.115Z,25.77
2018-12-26T08:54:23.096Z,26.10
2018-12-26T08:57:25.100Z,26.13
2018-12-26T09:00:26.986Z,24.20
2018-12-26T09:03:29.004Z,23.40
2018-12-26T09:06:30.929Z,23.93
2018-12-26T09:09:32.921Z,24.40
2018-12-26T09:12:34.831Z,24.97
2018-12-26T09:15:36.839Z,25.83
2018-12-26T09:18:38.895Z,21.90
2018-12-26T09:21:41.202Z,22.53
2018-12-26T09:24:43.156Z,24.87
2018-12-26T09:27:45.201Z,23.17
2018-12-26T09:30:47.127Z,23.40
2018-12-26T09:33:49.111Z,27.33
2018-12-26T09:36:51.135Z,22.80
2018-12-26T09:39:53.208Z,21.80
2018-12-26T09:42:55.139Z,25.97
2018-12-26T09:45:57.101Z,21.80
2018-12-26T09:48:59.023Z,22.50
2018-12-26T09:52:01.196Z,22.80
2018-12-26T09:55:03.971Z,25.93
2018-12-26T09:58:06.075Z,21.63
2018-12-26T10:01:07.991Z,24.37
2018-12-26T10:04:09.953Z,23.93
2018-12-26T10:07:11.946Z,25.67
2018-12-26T10:10:14.025Z,22.43
2018-12-26T10:13:16.030Z,21.90
2018-12-26T10:16:18.086Z,22.83
2018-12-26T10:19:20.083Z,19.97
2018-12-26T10:22:22.192Z,22.67
2018-12-26T10:25:24.125Z,22.03
2018-12-26T10:28:26.131Z,24.97
2018-12-26T10:31:28.066Z,26.73
2018-12-26T10:34:30.018Z,21.73
2018-12-26T10:37:32.120Z,24.73
2018-12-26T10:40:34.264Z,27.97
2018-12-26T10:43:36.176Z,26.97
2018-12-26T10:46:38.258Z,24.13
2018-12-26T10:49:40.209Z,25.10
2018-12-26T10:52:42.308Z,25.93
2018-12-26T10:55:44.344Z,26.17
2018-12-26T10:58:46.326Z,24.60
2018-12-26T11:01:48.282Z,25.70
2018-12-26T11:04:50.287Z,27.67
2018-12-26T11:07:52.277Z,29.90
2018-12-26T11:10:54.376Z,23.83
2018-12-26T11:13:56.314Z,22.97
2018-12-26T11:16:58.324Z,25.67
2018-12-26T11:20:00.313Z,25.73
2018-12-26T11:23:02.565Z,31.53
2018-12-26T11:26:04.540Z,29.93
2018-12-26T11:29:06.471Z,26.80
2018-12-26T11:32:08.444Z,23.37
2018-12-26T11:35:10.436Z,26.97
2018-12-26T11:38:12.471Z,22.93
2018-12-26T11:41:14.505Z,24.57
2018-12-26T11:44:16.524Z,27.53
2018-12-26T11:47:18.530Z,27.03
2018-12-26T11:50:20.571Z,21.57
2018-12-26T11:53:22.591Z,30.37
2018-12-26T11:56:24.572Z,23.37
2018-12-26T11:59:27.371Z,26.17
2018-12-26T12:02:29.747Z,26.70
2018-12-26T12:05:31.687Z,26.27
2018-12-26T12:08:33.858Z,23.83
2018-12-26T12:11:35.785Z,21.70
2018-12-26T12:14:37.780Z,24.73
2018-12-26T12:17:39.745Z,24.13
2018-12-26T12:20:41.755Z,24.13
2018-12-26T12:23:44.155Z,23.67
2018-12-26T12:26:46.502Z,21.40
2018-12-26T12:29:48.476Z,23.30
2018-12-26T12:32:50.523Z,21.23
2018-12-26T12:35:52.896Z,24.87
2018-12-26T12:38:54.856Z,29.77
2018-12-26T12:41:56.763Z,25.07
2018-12-26T12:44:58.716Z,24.73
2018-12-26T12:48:00.654Z,25.07
2018-12-26T12:51:02.573Z,28.93
2018-12-26T12:54:04.621Z,21.13
2018-12-26T12:57:06.570Z,24.07
2018-12-26T13:00:08.610Z,21.53
2018-12-26T13:03:10.862Z,27.93
2018-12-26T13:06:12.929Z,23.90
2018-12-26T13:09:14.936Z,25.27
2018-12-26T13:12:16.945Z,25.57
2018-12-26T13:15:18.945Z,23.30
2018-12-26T13:18:21.945Z,26.30
2018-12-26T13:21:23.928Z,24.70
2018-12-26T13:24:27.082Z,26.00
2018-12-26T13:27:29.042Z,23.20
2018-12-26T13:30:31.050Z,24.50
2018-12-26T13:33:32.970Z,23.10
2018-12-26T13:36:34.961Z,26.33
2018-12-26T13:39:36.984Z,27.33
2018-12-26T13:42:39.069Z,23.10
2018-12-26T13:45:41.155Z,23.87
2018-12-26T13:48:43.127Z,23.20
2018-12-26T13:51:45.163Z,23.73
2018-12-26T13:54:47.151Z,23.53
2018-12-26T13:57:49.054Z,23.40
2018-12-26T14:00:51.036Z,24.77
2018-12-26T14:03:53.002Z,24.33
2018-12-26T14:06:55.054Z,22.00
2018-12-26T14:09:57.027Z,22.33
2018-12-26T14:12:58.921Z,23.40
2018-12-26T14:16:00.874Z,23.53
2018-12-26T14:19:02.809Z,34.83
2018-12-26T14:22:04.833Z,34.83
2018-12-26T14:25:07.280Z,70.67
2018-12-26T14:28:09.351Z,58.70
2018-12-26T14:31:11.323Z,70.07
2018-12-26T14:34:13.383Z,32.23
2018-12-26T14:37:15.389Z,30.50
2018-12-26T14:40:17.415Z,22.27
2018-12-26T14:43:19.388Z,26.37
2018-12-26T14:46:21.348Z,28.27
2018-12-26T14:49:23.318Z,26.03
2018-12-26T14:52:25.445Z,26.60
2018-12-26T14:55:27.458Z,20.57
2018-12-26T14:58:29.383Z,22.90
2018-12-26T15:01:31.404Z,21.20
2018-12-26T15:04:33.372Z,35.47
2018-12-26T15:07:35.374Z,28.17
2018-12-26T15:10:37.320Z,40.37
2018-12-26T15:13:39.329Z,35.37
2018-12-26T15:16:41.253Z,27.00
2018-12-26T15:19:43.219Z,37.13
2018-12-26T15:22:45.188Z,36.10
2018-12-26T15:25:47.437Z,28.13
2018-12-26T15:28:49.363Z,30.60
2018-12-26T15:31:51.409Z,30.63
2018-12-26T15:34:53.667Z,24.20
2018-12-26T15:37:55.650Z,29.80
2018-12-26T15:40:57.696Z,21.63
2018-12-26T15:43:59.719Z,23.57
2018-12-26T15:47:01.745Z,19.70
2018-12-26T15:50:04.210Z,21.07
2018-12-26T15:53:06.260Z,27.07
2018-12-26T15:56:08.333Z,19.87
2018-12-26T15:59:10.368Z,17.57
2018-12-26T16:02:12.336Z,19.83
2018-12-26T16:05:14.393Z,18.40
2018-12-26T16:08:16.307Z,21.53
2018-12-26T16:11:18.384Z,21.80
2018-12-26T16:14:20.342Z,20.77
2018-12-26T16:17:22.383Z,19.97
2018-12-26T16:20:24.430Z,16.83
2018-12-26T16:23:27.411Z,17.80
2018-12-26T16:26:29.705Z,16.57
2018-12-26T16:29:31.850Z,16.20
2018-12-26T16:32:33.730Z,20.17
2018-12-26T16:35:35.739Z,18.97
2018-12-26T16:38:37.707Z,18.07
2018-12-26T16:41:39.692Z,18.73
2018-12-26T16:44:41.644Z,16.70
2018-12-26T16:47:43.684Z,16.20
2018-12-26T16:50:45.671Z,16.57
2018-12-26T16:53:47.658Z,15.17
2018-12-26T16:56:49.624Z,16.13
2018-12-26T16:59:51.623Z,14.93
2018-12-26T17:02:53.585Z,16.33
2018-12-26T17:05:55.556Z,14.07
2018-12-26T17:08:57.590Z,16.00
2018-12-26T17:11:59.548Z,15.87
2018-12-26T17:15:01.588Z,17.03
2018-12-26T17:18:03.548Z,16.23
2018-12-26T17:21:05.528Z,16.30
2018-12-26T17:24:16.302Z,14.23
2018-12-26T17:27:11.638Z,18.90
2018-12-26T17:30:13.624Z,14.63
2018-12-26T17:33:15.560Z,17.57
2018-12-26T17:36:17.554Z,14.40
2018-12-26T17:39:19.596Z,16.97
2018-12-26T17:42:21.617Z,18.73
2018-12-26T17:45:23.503Z,16.17
2018-12-26T17:48:26.519Z,18.80
2018-12-26T17:51:28.446Z,17.73
2018-12-26T17:54:31.571Z,14.57
2018-12-26T17:57:33.549Z,19.27
2018-12-26T18:00:36.100Z,15.33
2018-12-26T18:03:38.571Z,16.10
2018-12-26T18:06:41.822Z,14.57
2018-12-26T18:09:44.540Z,17.00
2018-12-26T18:12:47.242Z,15.67
2018-12-26T18:15:50.567Z,19.47
2018-12-26T18:18:54.591Z,17.67
2018-12-26T18:21:58.254Z,21.33
2018-12-26T18:25:00.898Z,17.27
2018-12-26T18:28:02.868Z,19.57
2018-12-26T18:31:05.174Z,16.80
2018-12-26T18:34:07.161Z,18.60
2018-12-26T18:37:09.124Z,16.57
2018-12-26T18:40:11.245Z,16.10
2018-12-26T18:43:13.150Z,15.43
2018-12-26T18:46:15.160Z,16.80
2018-12-26T18:49:17.078Z,14.03
2018-12-26T18:52:19.005Z,17.73
2018-12-26T18:55:21.173Z,16.80
2018-12-26T18:58:23.150Z,14.63
2018-12-26T19:01:30.565Z,17.53
2018-12-26T19:04:29.076Z,18.70
2018-12-26T19:07:31.179Z,16.07
2018-12-26T19:10:33.130Z,19.03
2018-12-26T19:13:35.280Z,16.27
2018-12-26T19:16:37.289Z,14.20
2018-12-26T19:19:39.454Z,17.50
2018-12-26T19:22:41.437Z,13.73
2018-12-26T19:25:43.376Z,13.53
2018-12-26T19:28:45.354Z,13.57
2018-12-26T19:31:47.438Z,16.47
2018-12-26T19:34:49.415Z,14.53
2018-12-26T19:37:51.366Z,15.13
2018-12-26T19:40:53.413Z,14.43
2018-12-26T19:43:56.417Z,14.43
2018-12-26T19:46:58.391Z,17.30
2018-12-26T19:50:04.918Z,17.33
2018-12-26T19:53:04.226Z,34.97
2018-12-26T19:56:06.634Z,17.97
2018-12-26T19:59:08.717Z,16.47
2018-12-26T20:02:10.765Z,14.73
2018-12-26T20:05:13.094Z,15.47
2018-12-26T20:08:15.045Z,17.87
2018-12-26T20:11:17.069Z,16.53
2018-12-26T20:14:19.095Z,13.40
2018-12-26T20:17:21.141Z,18.10
2018-12-26T20:20:23.235Z,19.50
2018-12-26T20:23:27.099Z,15.77
2018-12-26T20:26:29.144Z,14.77
2018-12-26T20:29:31.185Z,15.60
2018-12-26T20:32:34.935Z,19.93
2018-12-26T20:35:36.864Z,15.67
2018-12-26T20:38:38.798Z,17.30
2018-12-26T20:41:40.977Z,16.07
2018-12-26T20:44:43.053Z,16.23
2018-12-26T20:47:45.919Z,15.40
2018-12-26T20:50:47.862Z,15.90
2018-12-26T20:53:50.373Z,15.77
2018-12-26T20:56:53.050Z,16.60
2018-12-26T20:59:55.069Z,16.60
2018-12-26T21:02:57.053Z,16.03
2018-12-26T21:06:00.184Z,14.73
2018-12-26T21:09:02.340Z,13.60
2018-12-26T21:12:05.502Z,12.40
2018-12-26T21:15:07.656Z,14.33
2018-12-26T21:18:09.645Z,13.93
2018-12-26T21:21:11.663Z,13.37
2018-12-26T21:24:16.487Z,10.83
2018-12-26T21:27:20.218Z,16.83
2018-12-26T21:30:22.143Z,13.63
2018-12-26T21:33:24.324Z,11.90
2018-12-26T21:36:26.753Z,14.50
2018-12-26T21:39:28.803Z,12.90
2018-12-26T21:42:30.908Z,13.67
2018-12-26T21:45:32.938Z,16.73
2018-12-26T21:48:34.871Z,17.97
2018-12-26T21:51:36.862Z,16.93
2018-12-26T21:54:38.853Z,15.17
2018-12-26T21:57:40.989Z,16.03
2018-12-26T22:00:43.087Z,16.83
2018-12-26T22:03:45.051Z,16.73
2018-12-26T22:06:47.098Z,16.07
2018-12-26T22:09:49.043Z,14.30
2018-12-26T22:12:51.006Z,16.43
2018-12-26T22:15:52.975Z,15.37
2018-12-26T22:18:55.242Z,17.53
2018-12-26T22:21:57.727Z,17.93
2018-12-26T22:24:59.681Z,19.37
2018-12-26T22:28:02.683Z,17.30
2018-12-26T22:31:04.610Z,21.07
2018-12-26T22:34:06.963Z,17.90
2018-12-26T22:37:08.953Z,18.43
2018-12-26T22:40:10.988Z,28.17
2018-12-26T22:43:13.020Z,23.97
2018-12-26T22:46:14.967Z,17.73
2018-12-26T22:49:16.994Z,18.40
2018-12-26T22:52:18.873Z,19.23
2018-12-26T22:55:20.881Z,18.53
2018-12-26T22:58:22.947Z,17.70
2018-12-26T23:01:25.061Z,18.33
2018-12-26T23:04:26.974Z,20.77
2018-12-26T23:07:28.933Z,19.13
2018-12-26T23:10:30.943Z,20.17
2018-12-26T23:13:33.066Z,19.97
2018-12-26T23:16:35.069Z,22.00
2018-12-26T23:19:37.112Z,23.27
2018-12-26T23:22:39.043Z,23.73
2018-12-26T23:25:41.008Z,23.07
2018-12-26T23:28:42.959Z,25.37
2018-12-26T23:31:44.993Z,25.53
2018-12-26T23:34:47.080Z,23.57
2018-12-26T23:37:49.011Z,23.77
2018-12-26T23:40:50.977Z,26.43
2018-12-26T23:43:52.873Z,23.57
2018-12-26T23:46:54.813Z,24.27
2018-12-26T23:49:56.925Z,21.50
2018-12-26T23:52:58.978Z,22.73
2018-12-26T23:56:00.876Z,23.67
2018-12-26T23:59:03.060Z,22.07
